sensor_id;sensor_type;location;lat;lon;timestamp;P1;durP1;ratioP1;P2;durP2;ratioP2
42704;SDS011;28342;42.594;23.414;2022-09-09T00:04:28;11.65;;;8.15;;
42704;SDS011;28342;42.594;23.414;2022-09-09T00:09:36;12.13;;;8.60;;
42704;SDS011;28342;42.594;23.414;2022-09-09T00:12:11;12.07;;;8.95;;
42704;SDS011;28342;42.594;23.414;2022-09-09T00:20:32;10.55;;;7.90;;
42704;SDS011;28342;42.594;23.414;2022-09-09T00:23:31;10.10;;;8.02;;
42704;SDS011;28342;42.594;23.414;2022-09-09T00:29:12;12.27;;;9.30;;
42704;SDS011;28342;42.594;23.414;2022-09-09T00:31:45;12.30;;;9.45;;
42704;SDS011;28342;42.594;23.414;2022-09-09T00:34:20;10.32;;;8.70;;
42704;SDS011;28342;42.594;23.414;2022-09-09T00:36:57;10.65;;;9.05;;
42704;SDS011;28342;42.594;23.414;2022-09-09T00:39:31;11.85;;;9.60;;
42704;SDS011;28342;42.594;23.414;2022-09-09T00:56:12;17.58;;;10.38;;
42704;SDS011;28342;42.594;23.414;2022-09-09T00:58:48;14.02;;;10.48;;
42704;SDS011;28342;42.594;23.414;2022-09-09T01:01:18;18.63;;;9.82;;
42704;SDS011;28342;42.594;23.414;2022-09-09T01:03:53;14.45;;;10.02;;
42704;SDS011;28342;42.594;23.414;2022-09-09T01:06:29;9.98;;;8.95;;
42704;SDS011;28342;42.594;23.414;2022-09-09T01:11:58;11.35;;;9.18;;
42704;SDS011;28342;42.594;23.414;2022-09-09T01:17:44;12.60;;;9.25;;
42704;SDS011;28342;42.594;23.414;2022-09-09T01:20:19;14.35;;;9.85;;
42704;SDS011;28342;42.594;23.414;2022-09-09T01:26:04;13.38;;;10.00;;
42704;SDS011;28342;42.594;23.414;2022-09-09T01:28:33;15.25;;;10.30;;
42704;SDS011;28342;42.594;23.414;2022-09-09T01:31:03;12.52;;;10.18;;
42704;SDS011;28342;42.594;23.414;2022-09-09T01:33:31;11.77;;;9.95;;
42704;SDS011;28342;42.594;23.414;2022-09-09T01:36:02;13.23;;;10.15;;
42704;SDS011;28342;42.594;23.414;2022-09-09T01:38:48;12.45;;;9.27;;
42704;SDS011;28342;42.594;23.414;2022-09-09T01:41:14;14.23;;;9.98;;
42704;SDS011;28342;42.594;23.414;2022-09-09T01:43:43;12.20;;;9.43;;
42704;SDS011;28342;42.594;23.414;2022-09-09T01:46:10;11.73;;;9.70;;
42704;SDS011;28342;42.594;23.414;2022-09-09T01:48:37;10.35;;;9.07;;
42704;SDS011;28342;42.594;23.414;2022-09-09T01:51:04;12.07;;;9.30;;
42704;SDS011;28342;42.594;23.414;2022-09-09T01:53:29;14.38;;;9.88;;
42704;SDS011;28342;42.594;23.414;2022-09-09T01:56:24;11.13;;;9.93;;
42704;SDS011;28342;42.594;23.414;2022-09-09T02:04:41;12.48;;;10.25;;
42704;SDS011;28342;42.594;23.414;2022-09-09T02:07:22;12.03;;;9.60;;
42704;SDS011;28342;42.594;23.414;2022-09-09T02:13:20;13.63;;;9.55;;
42704;SDS011;28342;42.594;23.414;2022-09-09T02:15:57;11.15;;;9.50;;
42704;SDS011;28342;42.594;23.414;2022-09-09T02:18:50;13.55;;;9.60;;
42704;SDS011;28342;42.594;23.414;2022-09-09T02:21:20;11.82;;;10.00;;
42704;SDS011;28342;42.594;23.414;2022-09-09T02:24:14;15.43;;;11.18;;
42704;SDS011;28342;42.594;23.414;2022-09-09T02:26:42;10.50;;;8.98;;
42704;SDS011;28342;42.594;23.414;2022-09-09T02:29:17;13.60;;;9.93;;
42704;SDS011;28342;42.594;23.414;2022-09-09T02:32:21;14.98;;;9.20;;
42704;SDS011;28342;42.594;23.414;2022-09-09T02:35:05;12.52;;;9.48;;
42704;SDS011;28342;42.594;23.414;2022-09-09T02:40:23;11.27;;;9.73;;
42704;SDS011;28342;42.594;23.414;2022-09-09T02:42:48;11.18;;;9.65;;
42704;SDS011;28342;42.594;23.414;2022-09-09T02:45:16;13.73;;;9.38;;
42704;SDS011;28342;42.594;23.414;2022-09-09T02:47:50;13.05;;;9.18;;
42704;SDS011;28342;42.594;23.414;2022-09-09T02:50:46;12.73;;;10.05;;
42704;SDS011;28342;42.594;23.414;2022-09-09T02:53:32;13.15;;;9.57;;
42704;SDS011;28342;42.594;23.414;2022-09-09T02:56:06;12.45;;;9.10;;
42704;SDS011;28342;42.594;23.414;2022-09-09T02:58:50;11.95;;;9.60;;
42704;SDS011;28342;42.594;23.414;2022-09-09T03:01:16;18.30;;;9.23;;
42704;SDS011;28342;42.594;23.414;2022-09-09T03:03:45;13.27;;;9.23;;
42704;SDS011;28342;42.594;23.414;2022-09-09T03:06:13;11.18;;;8.82;;
42704;SDS011;28342;42.594;23.414;2022-09-09T03:08:39;10.68;;;9.57;;
42704;SDS011;28342;42.594;23.414;2022-09-09T03:11:27;11.30;;;9.75;;
42704;SDS011;28342;42.594;23.414;2022-09-09T03:13:53;12.95;;;9.70;;
42704;SDS011;28342;42.594;23.414;2022-09-09T03:16:22;10.02;;;9.02;;
42704;SDS011;28342;42.594;23.414;2022-09-09T03:18:49;12.88;;;8.93;;
42704;SDS011;28342;42.594;23.414;2022-09-09T03:21:15;13.73;;;9.65;;
42704;SDS011;28342;42.594;23.414;2022-09-09T03:23:41;10.40;;;9.20;;
42704;SDS011;28342;42.594;23.414;2022-09-09T03:26:09;13.48;;;10.30;;
42704;SDS011;28342;42.594;23.414;2022-09-09T03:28:34;11.15;;;9.77;;
42704;SDS011;28342;42.594;23.414;2022-09-09T03:31:00;10.63;;;9.43;;
42704;SDS011;28342;42.594;23.414;2022-09-09T03:33:28;15.00;;;10.63;;
42704;SDS011;28342;42.594;23.414;2022-09-09T03:35:55;13.85;;;9.27;;
42704;SDS011;28342;42.594;23.414;2022-09-09T03:38:25;10.60;;;9.50;;
42704;SDS011;28342;42.594;23.414;2022-09-09T03:40:51;10.90;;;9.80;;
42704;SDS011;28342;42.594;23.414;2022-09-09T03:43:23;10.48;;;9.38;;
42704;SDS011;28342;42.594;23.414;2022-09-09T03:45:50;13.25;;;10.35;;
42704;SDS011;28342;42.594;23.414;2022-09-09T03:48:16;11.77;;;10.50;;
42704;SDS011;28342;42.594;23.414;2022-09-09T03:50:49;11.63;;;9.90;;
42704;SDS011;28342;42.594;23.414;2022-09-09T03:53:17;11.20;;;9.75;;
42704;SDS011;28342;42.594;23.414;2022-09-09T03:55:54;15.45;;;10.75;;
42704;SDS011;28342;42.594;23.414;2022-09-09T03:58:21;14.68;;;10.70;;
42704;SDS011;28342;42.594;23.414;2022-09-09T04:01:06;16.40;;;10.57;;
42704;SDS011;28342;42.594;23.414;2022-09-09T04:03:39;14.98;;;10.57;;
42704;SDS011;28342;42.594;23.414;2022-09-09T04:06:07;13.43;;;10.73;;
42704;SDS011;28342;42.594;23.414;2022-09-09T04:08:34;15.10;;;11.02;;
42704;SDS011;28342;42.594;23.414;2022-09-09T04:11:01;13.15;;;11.00;;
42704;SDS011;28342;42.594;23.414;2022-09-09T04:13:34;16.40;;;10.50;;
42704;SDS011;28342;42.594;23.414;2022-09-09T04:16:04;14.13;;;10.43;;
42704;SDS011;28342;42.594;23.414;2022-09-09T04:18:31;11.77;;;10.30;;
42704;SDS011;28342;42.594;23.414;2022-09-09T04:20:56;13.38;;;10.43;;
42704;SDS011;28342;42.594;23.414;2022-09-09T04:23:23;12.73;;;10.40;;
42704;SDS011;28342;42.594;23.414;2022-09-09T04:25:51;14.88;;;10.38;;
42704;SDS011;28342;42.594;23.414;2022-09-09T04:28:17;11.40;;;10.20;;
42704;SDS011;28342;42.594;23.414;2022-09-09T04:30:44;13.50;;;10.82;;
42704;SDS011;28342;42.594;23.414;2022-09-09T04:33:12;15.13;;;12.05;;
42704;SDS011;28342;42.594;23.414;2022-09-09T04:35:39;13.93;;;11.85;;
42704;SDS011;28342;42.594;23.414;2022-09-09T04:38:08;18.42;;;11.70;;
42704;SDS011;28342;42.594;23.414;2022-09-09T04:40:34;15.27;;;10.73;;
42704;SDS011;28342;42.594;23.414;2022-09-09T04:43:00;12.02;;;10.70;;
42704;SDS011;28342;42.594;23.414;2022-09-09T04:45:28;13.73;;;10.10;;
42704;SDS011;28342;42.594;23.414;2022-09-09T04:47:54;14.05;;;10.13;;
42704;SDS011;28342;42.594;23.414;2022-09-09T04:50:20;10.80;;;9.68;;
42704;SDS011;28342;42.594;23.414;2022-09-09T04:52:45;12.25;;;10.52;;
42704;SDS011;28342;42.594;23.414;2022-09-09T04:55:11;13.45;;;10.75;;
42704;SDS011;28342;42.594;23.414;2022-09-09T04:57:37;15.38;;;11.23;;
42704;SDS011;28342;42.594;23.414;2022-09-09T05:00:03;17.13;;;12.15;;
42704;SDS011;28342;42.594;23.414;2022-09-09T05:02:42;13.93;;;10.38;;
42704;SDS011;28342;42.594;23.414;2022-09-09T05:05:10;14.73;;;10.05;;
42704;SDS011;28342;42.594;23.414;2022-09-09T05:07:37;19.45;;;10.55;;
42704;SDS011;28342;42.594;23.414;2022-09-09T05:10:02;11.60;;;9.45;;
42704;SDS011;28342;42.594;23.414;2022-09-09T05:12:30;13.30;;;10.10;;
42704;SDS011;28342;42.594;23.414;2022-09-09T05:14:57;14.65;;;10.07;;
42704;SDS011;28342;42.594;23.414;2022-09-09T05:17:23;13.35;;;10.32;;
42704;SDS011;28342;42.594;23.414;2022-09-09T05:19:49;17.23;;;9.60;;
42704;SDS011;28342;42.594;23.414;2022-09-09T05:22:20;13.05;;;9.10;;
42704;SDS011;28342;42.594;23.414;2022-09-09T05:24:49;10.30;;;8.38;;
42704;SDS011;28342;42.594;23.414;2022-09-09T05:27:17;10.55;;;8.75;;
42704;SDS011;28342;42.594;23.414;2022-09-09T05:29:45;11.95;;;9.55;;
42704;SDS011;28342;42.594;23.414;2022-09-09T05:32:11;11.52;;;8.50;;
42704;SDS011;28342;42.594;23.414;2022-09-09T05:34:40;12.75;;;8.80;;
42704;SDS011;28342;42.594;23.414;2022-09-09T05:37:06;11.38;;;8.90;;
42704;SDS011;28342;42.594;23.414;2022-09-09T05:39:32;14.98;;;8.50;;
42704;SDS011;28342;42.594;23.414;2022-09-09T05:42:01;10.65;;;8.75;;
42704;SDS011;28342;42.594;23.414;2022-09-09T05:44:29;11.88;;;7.88;;
42704;SDS011;28342;42.594;23.414;2022-09-09T05:46:54;18.02;;;8.45;;
42704;SDS011;28342;42.594;23.414;2022-09-09T05:49:20;12.60;;;7.78;;
42704;SDS011;28342;42.594;23.414;2022-09-09T05:51:46;12.18;;;7.57;;
42704;SDS011;28342;42.594;23.414;2022-09-09T05:54:12;15.13;;;8.05;;
42704;SDS011;28342;42.594;23.414;2022-09-09T05:56:40;12.90;;;8.27;;
42704;SDS011;28342;42.594;23.414;2022-09-09T05:59:06;10.88;;;8.13;;
42704;SDS011;28342;42.594;23.414;2022-09-09T06:01:32;12.15;;;8.20;;
42704;SDS011;28342;42.594;23.414;2022-09-09T06:03:59;12.32;;;8.00;;
42704;SDS011;28342;42.594;23.414;2022-09-09T06:06:27;13.85;;;8.45;;
42704;SDS011;28342;42.594;23.414;2022-09-09T06:09:16;17.52;;;8.07;;
42704;SDS011;28342;42.594;23.414;2022-09-09T06:11:49;14.10;;;7.65;;
42704;SDS011;28342;42.594;23.414;2022-09-09T06:16:53;12.15;;;7.68;;
42704;SDS011;28342;42.594;23.414;2022-09-09T06:19:31;10.57;;;7.65;;
42704;SDS011;28342;42.594;23.414;2022-09-09T06:21:57;10.23;;;7.13;;
42704;SDS011;28342;42.594;23.414;2022-09-09T06:24:22;11.93;;;7.22;;
42704;SDS011;28342;42.594;23.414;2022-09-09T06:26:55;11.38;;;7.30;;
42704;SDS011;28342;42.594;23.414;2022-09-09T06:29:21;8.98;;;7.70;;
42704;SDS011;28342;42.594;23.414;2022-09-09T06:31:54;14.48;;;7.22;;
42704;SDS011;28342;42.594;23.414;2022-09-09T06:34:48;7.82;;;6.68;;
42704;SDS011;28342;42.594;23.414;2022-09-09T06:37:14;8.90;;;7.10;;
42704;SDS011;28342;42.594;23.414;2022-09-09T06:39:39;7.63;;;6.93;;
42704;SDS011;28342;42.594;23.414;2022-09-09T06:42:05;8.88;;;7.55;;
42704;SDS011;28342;42.594;23.414;2022-09-09T06:44:33;7.95;;;7.07;;
42704;SDS011;28342;42.594;23.414;2022-09-09T06:46:58;15.52;;;7.50;;
42704;SDS011;28342;42.594;23.414;2022-09-09T06:49:24;10.18;;;6.35;;
42704;SDS011;28342;42.594;23.414;2022-09-09T06:51:50;10.15;;;6.00;;
42704;SDS011;28342;42.594;23.414;2022-09-09T06:54:17;10.48;;;6.88;;
42704;SDS011;28342;42.594;23.414;2022-09-09T06:56:44;48.33;;;10.02;;
42704;SDS011;28342;42.594;23.414;2022-09-09T06:59:14;22.58;;;7.53;;
42704;SDS011;28342;42.594;23.414;2022-09-09T07:01:43;10.35;;;6.72;;
42704;SDS011;28342;42.594;23.414;2022-09-09T07:04:14;7.70;;;5.80;;
42704;SDS011;28342;42.594;23.414;2022-09-09T07:06:43;9.52;;;6.38;;
42704;SDS011;28342;42.594;23.414;2022-09-09T07:09:44;16.27;;;6.97;;
42704;SDS011;28342;42.594;23.414;2022-09-09T07:12:23;11.90;;;6.20;;
42704;SDS011;28342;42.594;23.414;2022-09-09T07:39:10;8.00;;;5.50;;
42704;SDS011;28342;42.594;23.414;2022-09-09T07:42:38;12.30;;;5.65;;
42704;SDS011;28342;42.594;23.414;2022-09-09T07:45:33;10.05;;;5.88;;
42704;SDS011;28342;42.594;23.414;2022-09-09T07:49:03;14.20;;;5.63;;
42704;SDS011;28342;42.594;23.414;2022-09-09T07:56:25;9.20;;;5.28;;
42704;SDS011;28342;42.594;23.414;2022-09-09T08:02:09;12.63;;;5.28;;
42704;SDS011;28342;42.594;23.414;2022-09-09T08:11:35;9.57;;;6.10;;
42704;SDS011;28342;42.594;23.414;2022-09-09T08:18:13;11.00;;;5.80;;
42704;SDS011;28342;42.594;23.414;2022-09-09T08:20:56;10.27;;;5.50;;
42704;SDS011;28342;42.594;23.414;2022-09-09T08:23:37;11.80;;;5.70;;
42704;SDS011;28342;42.594;23.414;2022-09-09T08:26:30;12.93;;;5.53;;
42704;SDS011;28342;42.594;23.414;2022-09-09T08:29:17;12.82;;;5.93;;
42704;SDS011;28342;42.594;23.414;2022-09-09T08:31:47;12.70;;;6.43;;
42704;SDS011;28342;42.594;23.414;2022-09-09T09:27:12;12.50;;;5.30;;
42704;SDS011;28342;42.594;23.414;2022-09-09T09:29:41;8.55;;;5.63;;
42704;SDS011;28342;42.594;23.414;2022-09-09T09:32:17;16.73;;;5.65;;
42704;SDS011;28342;42.594;23.414;2022-09-09T09:34:49;10.70;;;5.95;;
42704;SDS011;28342;42.594;23.414;2022-09-09T09:40:27;49.40;;;9.15;;
42704;SDS011;28342;42.594;23.414;2022-09-09T09:42:53;75.15;;;10.73;;
42704;SDS011;28342;42.594;23.414;2022-09-09T10:06:35;9.52;;;6.03;;
42704;SDS011;28342;42.594;23.414;2022-09-09T10:09:34;8.65;;;5.78;;
42704;SDS011;28342;42.594;23.414;2022-09-09T10:22:08;8.43;;;5.65;;
42704;SDS011;28342;42.594;23.414;2022-09-09T10:25:28;9.10;;;6.00;;
42704;SDS011;28342;42.594;23.414;2022-09-09T10:28:30;9.65;;;5.82;;
42704;SDS011;28342;42.594;23.414;2022-09-09T11:08:54;12.63;;;6.57;;
42704;SDS011;28342;42.594;23.414;2022-09-09T11:38:44;17.92;;;6.68;;
42704;SDS011;28342;42.594;23.414;2022-09-09T11:42:17;15.20;;;7.03;;
42704;SDS011;28342;42.594;23.414;2022-09-09T11:44:48;11.50;;;6.35;;
42704;SDS011;28342;42.594;23.414;2022-09-09T11:50:41;17.13;;;6.95;;
42704;SDS011;28342;42.594;23.414;2022-09-09T11:52:44;13.50;;;6.25;;
42704;SDS011;28342;42.594;23.414;2022-09-09T11:58:18;14.27;;;6.63;;
42704;SDS011;28342;42.594;23.414;2022-09-09T12:00:45;24.30;;;7.10;;
42704;SDS011;28342;42.594;23.414;2022-09-09T12:06:30;17.55;;;7.20;;
42704;SDS011;28342;42.594;23.414;2022-09-09T12:09:15;19.42;;;7.05;;
42704;SDS011;28342;42.594;23.414;2022-09-09T12:11:51;15.27;;;6.40;;
42704;SDS011;28342;42.594;23.414;2022-09-09T12:14:23;11.35;;;6.28;;
42704;SDS011;28342;42.594;23.414;2022-09-09T12:28:09;12.32;;;6.97;;
42704;SDS011;28342;42.594;23.414;2022-09-09T12:33:13;16.67;;;7.32;;
42704;SDS011;28342;42.594;23.414;2022-09-09T12:35:42;14.63;;;7.63;;
42704;SDS011;28342;42.594;23.414;2022-09-09T12:38:19;14.27;;;7.25;;
42704;SDS011;28342;42.594;23.414;2022-09-09T12:40:55;15.00;;;6.97;;
42704;SDS011;28342;42.594;23.414;2022-09-09T12:43:23;14.45;;;6.80;;
42704;SDS011;28342;42.594;23.414;2022-09-09T12:52:01;9.73;;;6.53;;
42704;SDS011;28342;42.594;23.414;2022-09-09T12:54:45;12.73;;;7.53;;
42704;SDS011;28342;42.594;23.414;2022-09-09T12:57:34;13.10;;;7.30;;
42704;SDS011;28342;42.594;23.414;2022-09-09T13:00:24;21.20;;;7.35;;
42704;SDS011;28342;42.594;23.414;2022-09-09T13:02:53;17.23;;;7.43;;
42704;SDS011;28342;42.594;23.414;2022-09-09T13:05:22;14.02;;;7.07;;
42704;SDS011;28342;42.594;23.414;2022-09-09T13:08:01;13.07;;;6.70;;
42704;SDS011;28342;42.594;23.414;2022-09-09T13:10:39;15.07;;;7.65;;
42704;SDS011;28342;42.594;23.414;2022-09-09T13:13:22;11.90;;;6.75;;
42704;SDS011;28342;42.594;23.414;2022-09-09T13:15:50;18.20;;;7.90;;
42704;SDS011;28342;42.594;23.414;2022-09-09T13:18:20;15.73;;;7.35;;
42704;SDS011;28342;42.594;23.414;2022-09-09T13:20:52;16.65;;;6.88;;
42704;SDS011;28342;42.594;23.414;2022-09-09T13:23:36;12.35;;;7.53;;
42704;SDS011;28342;42.594;23.414;2022-09-09T13:26:06;20.35;;;7.28;;
42704;SDS011;28342;42.594;23.414;2022-09-09T13:31:36;10.55;;;7.60;;
42704;SDS011;28342;42.594;23.414;2022-09-09T13:34:25;16.73;;;7.53;;
42704;SDS011;28342;42.594;23.414;2022-09-09T13:36:54;13.98;;;7.43;;
42704;SDS011;28342;42.594;23.414;2022-09-09T13:39:32;18.83;;;8.18;;
42704;SDS011;28342;42.594;23.414;2022-09-09T13:42:04;12.43;;;7.18;;
42704;SDS011;28342;42.594;23.414;2022-09-09T13:44:40;14.65;;;7.53;;
42704;SDS011;28342;42.594;23.414;2022-09-09T13:47:39;13.00;;;7.63;;
42704;SDS011;28342;42.594;23.414;2022-09-09T13:53:09;17.85;;;7.85;;
42704;SDS011;28342;42.594;23.414;2022-09-09T13:56:04;14.23;;;7.20;;
42704;SDS011;28342;42.594;23.414;2022-09-09T13:58:30;11.25;;;6.20;;
42704;SDS011;28342;42.594;23.414;2022-09-09T14:01:03;19.42;;;6.88;;
42704;SDS011;28342;42.594;23.414;2022-09-09T14:03:30;8.70;;;6.50;;
42704;SDS011;28342;42.594;23.414;2022-09-09T14:05:56;16.40;;;6.47;;
42704;SDS011;28342;42.594;23.414;2022-09-09T14:08:25;13.50;;;9.27;;
42704;SDS011;28342;42.594;23.414;2022-09-09T14:11:13;13.45;;;7.47;;
42704;SDS011;28342;42.594;23.414;2022-09-09T14:14:13;14.02;;;7.55;;
42704;SDS011;28342;42.594;23.414;2022-09-09T14:16:31;19.13;;;7.30;;
42704;SDS011;28342;42.594;23.414;2022-09-09T14:19:00;9.25;;;6.38;;
42704;SDS011;28342;42.594;23.414;2022-09-09T14:21:35;16.15;;;7.75;;
42704;SDS011;28342;42.594;23.414;2022-09-09T14:24:00;14.77;;;7.78;;
42704;SDS011;28342;42.594;23.414;2022-09-09T14:26:46;14.38;;;6.90;;
42704;SDS011;28342;42.594;23.414;2022-09-09T14:29:13;18.40;;;7.15;;
42704;SDS011;28342;42.594;23.414;2022-09-09T14:31:54;16.98;;;7.70;;
42704;SDS011;28342;42.594;23.414;2022-09-09T14:34:26;10.77;;;6.88;;
42704;SDS011;28342;42.594;23.414;2022-09-09T14:36:52;15.27;;;7.03;;
42704;SDS011;28342;42.594;23.414;2022-09-09T14:39:17;12.50;;;6.72;;
42704;SDS011;28342;42.594;23.414;2022-09-09T14:41:42;15.63;;;7.05;;
42704;SDS011;28342;42.594;23.414;2022-09-09T14:44:09;13.85;;;6.40;;
42704;SDS011;28342;42.594;23.414;2022-09-09T14:46:37;19.08;;;7.43;;
42704;SDS011;28342;42.594;23.414;2022-09-09T14:49:04;16.08;;;7.18;;
42704;SDS011;28342;42.594;23.414;2022-09-09T14:51:29;11.32;;;6.43;;
42704;SDS011;28342;42.594;23.414;2022-09-09T14:53:56;15.70;;;6.95;;
42704;SDS011;28342;42.594;23.414;2022-09-09T14:56:26;16.58;;;6.38;;
42704;SDS011;28342;42.594;23.414;2022-09-09T14:59:13;12.10;;;5.93;;
42704;SDS011;28342;42.594;23.414;2022-09-09T15:01:38;14.55;;;5.88;;
42704;SDS011;28342;42.594;23.414;2022-09-09T15:04:04;12.13;;;5.20;;
42704;SDS011;28342;42.594;23.414;2022-09-09T15:06:32;13.23;;;5.35;;
42704;SDS011;28342;42.594;23.414;2022-09-09T15:09:05;14.02;;;5.57;;
42704;SDS011;28342;42.594;23.414;2022-09-09T15:11:33;11.63;;;5.80;;
42704;SDS011;28342;42.594;23.414;2022-09-09T15:14:02;9.85;;;5.90;;
42704;SDS011;28342;42.594;23.414;2022-09-09T15:16:29;16.90;;;7.25;;
42704;SDS011;28342;42.594;23.414;2022-09-09T15:18:57;11.05;;;6.88;;
42704;SDS011;28342;42.594;23.414;2022-09-09T15:21:26;18.05;;;8.35;;
42704;SDS011;28342;42.594;23.414;2022-09-09T15:23:53;16.50;;;10.90;;
42704;SDS011;28342;42.594;23.414;2022-09-09T15:26:19;12.98;;;8.75;;
42704;SDS011;28342;42.594;23.414;2022-09-09T15:28:46;17.23;;;7.72;;
42704;SDS011;28342;42.594;23.414;2022-09-09T15:31:20;19.25;;;7.65;;
42704;SDS011;28342;42.594;23.414;2022-09-09T15:34:30;12.38;;;7.28;;
42704;SDS011;28342;42.594;23.414;2022-09-09T15:36:58;15.73;;;7.13;;
42704;SDS011;28342;42.594;23.414;2022-09-09T15:39:29;14.23;;;6.93;;
42704;SDS011;28342;42.594;23.414;2022-09-09T15:41:57;12.55;;;7.00;;
42704;SDS011;28342;42.594;23.414;2022-09-09T15:44:26;19.35;;;6.90;;
42704;SDS011;28342;42.594;23.414;2022-09-09T15:47:04;11.43;;;7.20;;
42704;SDS011;28342;42.594;23.414;2022-09-09T15:49:33;15.52;;;8.43;;
42704;SDS011;28342;42.594;23.414;2022-09-09T15:51:59;13.80;;;9.07;;
42704;SDS011;28342;42.594;23.414;2022-09-09T15:54:28;10.27;;;7.60;;
42704;SDS011;28342;42.594;23.414;2022-09-09T15:56:58;13.40;;;7.30;;
42704;SDS011;28342;42.594;23.414;2022-09-09T15:59:26;13.32;;;8.20;;
42704;SDS011;28342;42.594;23.414;2022-09-09T16:01:53;18.48;;;7.97;;
42704;SDS011;28342;42.594;23.414;2022-09-09T16:04:21;12.52;;;8.00;;
42704;SDS011;28342;42.594;23.414;2022-09-09T16:06:50;17.23;;;8.57;;
42704;SDS011;28342;42.594;23.414;2022-09-09T16:09:27;12.77;;;8.35;;
42704;SDS011;28342;42.594;23.414;2022-09-09T16:12:04;17.98;;;8.00;;
42704;SDS011;28342;42.594;23.414;2022-09-09T16:14:31;18.95;;;8.20;;
42704;SDS011;28342;42.594;23.414;2022-09-09T16:17:01;13.48;;;8.68;;
42704;SDS011;28342;42.594;23.414;2022-09-09T16:19:29;17.00;;;7.85;;
42704;SDS011;28342;42.594;23.414;2022-09-09T16:21:55;11.48;;;9.07;;
42704;SDS011;28342;42.594;23.414;2022-09-09T16:24:23;13.52;;;8.30;;
42704;SDS011;28342;42.594;23.414;2022-09-09T16:27:05;17.75;;;7.97;;
42704;SDS011;28342;42.594;23.414;2022-09-09T16:29:31;12.70;;;8.30;;
42704;SDS011;28342;42.594;23.414;2022-09-09T16:31:58;15.73;;;8.63;;
42704;SDS011;28342;42.594;23.414;2022-09-09T16:34:33;15.30;;;7.88;;
42704;SDS011;28342;42.594;23.414;2022-09-09T16:36:58;18.90;;;8.32;;
42704;SDS011;28342;42.594;23.414;2022-09-09T16:39:28;14.13;;;8.38;;
42704;SDS011;28342;42.594;23.414;2022-09-09T16:42:16;16.27;;;8.38;;
42704;SDS011;28342;42.594;23.414;2022-09-09T16:44:47;12.27;;;8.70;;
42704;SDS011;28342;42.594;23.414;2022-09-09T16:47:40;15.18;;;7.22;;
42704;SDS011;28342;42.594;23.414;2022-09-09T16:50:05;14.32;;;7.85;;
42704;SDS011;28342;42.594;23.414;2022-09-09T16:52:40;15.95;;;8.70;;
42704;SDS011;28342;42.594;23.414;2022-09-09T16:55:40;14.35;;;8.77;;
42704;SDS011;28342;42.594;23.414;2022-09-09T16:58:12;18.20;;;9.15;;
42704;SDS011;28342;42.594;23.414;2022-09-09T17:00:38;21.73;;;8.85;;
42704;SDS011;28342;42.594;23.414;2022-09-09T17:03:03;18.58;;;8.75;;
42704;SDS011;28342;42.594;23.414;2022-09-09T17:05:29;23.13;;;15.43;;
42704;SDS011;28342;42.594;23.414;2022-09-09T17:07:54;16.73;;;10.13;;
42704;SDS011;28342;42.594;23.414;2022-09-09T17:10:28;16.05;;;8.93;;
42704;SDS011;28342;42.594;23.414;2022-09-09T17:12:53;17.42;;;8.10;;
42704;SDS011;28342;42.594;23.414;2022-09-09T17:15:27;14.38;;;9.35;;
42704;SDS011;28342;42.594;23.414;2022-09-09T17:17:54;19.42;;;9.05;;
42704;SDS011;28342;42.594;23.414;2022-09-09T17:20:20;12.88;;;8.82;;
42704;SDS011;28342;42.594;23.414;2022-09-09T17:23:07;16.27;;;9.10;;
42704;SDS011;28342;42.594;23.414;2022-09-09T17:26:15;17.88;;;10.32;;
42704;SDS011;28342;42.594;23.414;2022-09-09T17:29:03;20.47;;;10.23;;
42704;SDS011;28342;42.594;23.414;2022-09-09T17:31:33;14.52;;;9.35;;
42704;SDS011;28342;42.594;23.414;2022-09-09T17:34:15;16.20;;;8.73;;
42704;SDS011;28342;42.594;23.414;2022-09-09T17:36:40;14.15;;;8.75;;
42704;SDS011;28342;42.594;23.414;2022-09-09T17:39:06;18.75;;;8.95;;
42704;SDS011;28342;42.594;23.414;2022-09-09T17:41:35;14.27;;;8.77;;
42704;SDS011;28342;42.594;23.414;2022-09-09T17:44:03;16.63;;;8.82;;
42704;SDS011;28342;42.594;23.414;2022-09-09T17:46:34;14.63;;;9.25;;
42704;SDS011;28342;42.594;23.414;2022-09-09T17:49:05;16.70;;;9.25;;
42704;SDS011;28342;42.594;23.414;2022-09-09T17:51:51;18.08;;;9.95;;
42704;SDS011;28342;42.594;23.414;2022-09-09T17:54:26;19.58;;;9.00;;
42704;SDS011;28342;42.594;23.414;2022-09-09T17:57:30;15.05;;;9.75;;
42704;SDS011;28342;42.594;23.414;2022-09-09T17:59:56;16.00;;;9.32;;
42704;SDS011;28342;42.594;23.414;2022-09-09T18:02:21;12.57;;;9.27;;
42704;SDS011;28342;42.594;23.414;2022-09-09T18:04:47;12.65;;;9.25;;
42704;SDS011;28342;42.594;23.414;2022-09-09T18:07:21;13.05;;;9.68;;
42704;SDS011;28342;42.594;23.414;2022-09-09T18:09:51;13.82;;;9.57;;
42704;SDS011;28342;42.594;23.414;2022-09-09T18:12:17;20.17;;;9.90;;
42704;SDS011;28342;42.594;23.414;2022-09-09T18:14:43;12.15;;;9.52;;
42704;SDS011;28342;42.594;23.414;2022-09-09T18:17:08;13.65;;;8.32;;
42704;SDS011;28342;42.594;23.414;2022-09-09T18:19:35;12.93;;;8.85;;
42704;SDS011;28342;42.594;23.414;2022-09-09T18:22:02;18.60;;;10.23;;
42704;SDS011;28342;42.594;23.414;2022-09-09T18:24:43;16.60;;;10.27;;
42704;SDS011;28342;42.594;23.414;2022-09-09T18:27:12;15.40;;;9.85;;
42704;SDS011;28342;42.594;23.414;2022-09-09T18:29:44;23.10;;;13.32;;
42704;SDS011;28342;42.594;23.414;2022-09-09T18:32:30;19.20;;;13.77;;
42704;SDS011;28342;42.594;23.414;2022-09-09T18:35:04;18.67;;;10.82;;
42704;SDS011;28342;42.594;23.414;2022-09-09T18:37:30;15.48;;;11.27;;
42704;SDS011;28342;42.594;23.414;2022-09-09T18:40:08;15.93;;;9.65;;
42704;SDS011;28342;42.594;23.414;2022-09-09T18:42:53;14.75;;;9.75;;
42704;SDS011;28342;42.594;23.414;2022-09-09T18:45:38;12.82;;;10.35;;
42704;SDS011;28342;42.594;23.414;2022-09-09T18:48:08;16.60;;;10.55;;
42704;SDS011;28342;42.594;23.414;2022-09-09T18:50:43;14.57;;;10.18;;
42704;SDS011;28342;42.594;23.414;2022-09-09T18:53:08;15.48;;;10.18;;
42704;SDS011;28342;42.594;23.414;2022-09-09T18:55:36;18.52;;;10.07;;
42704;SDS011;28342;42.594;23.414;2022-09-09T18:58:43;15.38;;;9.93;;
42704;SDS011;28342;42.594;23.414;2022-09-09T19:01:22;21.17;;;10.93;;
42704;SDS011;28342;42.594;23.414;2022-09-09T19:04:17;17.65;;;10.60;;
42704;SDS011;28342;42.594;23.414;2022-09-09T19:07:06;21.80;;;10.25;;
42704;SDS011;28342;42.594;23.414;2022-09-09T19:09:31;17.52;;;9.80;;
42704;SDS011;28342;42.594;23.414;2022-09-09T19:12:06;13.23;;;10.18;;
42704;SDS011;28342;42.594;23.414;2022-09-09T19:14:40;13.52;;;10.30;;
42704;SDS011;28342;42.594;23.414;2022-09-09T19:17:46;17.65;;;10.95;;
42704;SDS011;28342;42.594;23.414;2022-09-09T19:20:21;19.95;;;11.20;;
42704;SDS011;28342;42.594;23.414;2022-09-09T19:22:49;19.92;;;11.40;;
42704;SDS011;28342;42.594;23.414;2022-09-09T19:25:21;17.73;;;11.02;;
42704;SDS011;28342;42.594;23.414;2022-09-09T19:27:47;13.30;;;10.02;;
42704;SDS011;28342;42.594;23.414;2022-09-09T19:30:16;18.00;;;10.63;;
42704;SDS011;28342;42.594;23.414;2022-09-09T19:32:46;16.73;;;10.98;;
42704;SDS011;28342;42.594;23.414;2022-09-09T19:35:16;14.80;;;11.00;;
42704;SDS011;28342;42.594;23.414;2022-09-09T19:37:44;15.60;;;10.35;;